Time;durP1;ratioP1;P1;durP2;ratioP2;P2;SDS_P1;SDS_P2;PMS_P1;PMS_P2;Temp;Humidity;BMP_temperature;BMP_pressure;BME280_temperature;BME280_humidity;BME280_pressure;Samples;Min_cycle;Max_cycle;Signal;HPM_P1;HPM_P2
2022/03/27 00:01:03;;;;;;;24.38;12.20;;;;;;;;;;5054875;28;20041;-80
2022/03/27 00:03:28;;;;;;;20.73;11.50;;;;;;;;;;5054943;28;20037;-80
2022/03/27 00:05:53;;;;;;;20.02;11.10;;;;;;;;;;5054878;28;20044;-80
2022/03/27 00:08:19;;;;;;;26.02;12.23;;;;;;;;;;5054637;28;20511;-80
2022/03/27 00:13:28;;;;;;;25.40;13.40;;;;;;;;;;5054851;28;20028;-80
2022/03/27 00:15:54;;;;;;;20.48;12.32;;;;;;;;;;5054675;28;20028;-81
2022/03/27 00:18:19;;;;;;;23.40;11.40;;;;;;;;;;5054505;28;20150;-80
2022/03/27 00:20:44;;;;;;;22.73;12.13;;;;;;;;;;5054682;28;20044;-81
2022/03/27 00:23:09;;;;;;;29.38;12.13;;;;;;;;;;5054096;28;20464;-81
2022/03/27 00:25:35;;;;;;;20.02;11.18;;;;;;;;;;5054076;28;20068;-80
2022/03/27 00:28:00;;;;;;;21.23;12.27;;;;;;;;;;5054615;28;20036;-81
2022/03/27 00:30:26;;;;;;;25.60;12.43;;;;;;;;;;5054275;28;20428;-80
2022/03/27 00:32:51;;;;;;;23.40;12.15;;;;;;;;;;5053022;28;20037;-80
2022/03/27 00:35:16;;;;;;;20.00;11.60;;;;;;;;;;5053998;28;20130;-80
2022/03/27 00:37:41;;;;;;;23.25;11.93;;;;;;;;;;5054352;28;20179;-80
2022/03/27 00:40:08;;;;;;;26.42;12.07;;;;;;;;;;5054202;28;20040;-80
2022/03/27 00:42:33;;;;;;;24.20;12.15;;;;;;;;;;5053334;28;20053;-79
2022/03/27 00:44:58;;;;;;;23.88;12.73;;;;;;;;;;5053637;28;20434;-80
2022/03/27 00:47:23;;;;;;;25.63;12.02;;;;;;;;;;5052974;28;20440;-80
2022/03/27 00:49:49;;;;;;;20.30;11.65;;;;;;;;;;5054140;28;20048;-80
2022/03/27 00:52:14;;;;;;;19.95;11.27;;;;;;;;;;5053034;28;20112;-80
2022/03/27 00:54:39;;;;;;;19.73;11.70;;;;;;;;;;5053597;28;20021;-80
2022/03/27 00:57:04;;;;;;;22.15;11.70;;;;;;;;;;5054298;28;20451;-80
2022/03/27 00:59:30;;;;;;;23.25;12.23;;;;;;;;;;5053506;28;20037;-80
2022/03/27 01:01:55;;;;;;;21.92;12.15;;;;;;;;;;5054061;28;20374;-80
2022/03/27 01:04:20;;;;;;;20.88;11.40;;;;;;;;;;5053939;28;20060;-80
2022/03/27 01:06:46;;;;;;;23.40;12.13;;;;;;;;;;5054132;28;20442;-80
2022/03/27 01:11:55;;;;;;;24.08;12.32;;;;;;;;;;5052642;28;20056;-80
2022/03/27 01:14:21;;;;;;;144.98;61.40;;;;;;;;;;5052332;28;20403;-80
2022/03/27 01:16:47;;;;;;;71.13;32.17;;;;;;;;;;5054338;28;20024;-80
2022/03/27 01:19:12;;;;;;;80.78;36.17;;;;;;;;;;5052729;28;20107;-80
2022/03/27 01:21:38;;;;;;;76.55;34.92;;;;;;;;;;5053881;28;20096;-80
2022/03/27 01:24:03;;;;;;;31.23;16.08;;;;;;;;;;5053662;28;20040;-80
2022/03/27 01:26:29;;;;;;;88.82;40.75;;;;;;;;;;5054059;28;20508;-80
2022/03/27 01:28:54;;;;;;;52.60;24.55;;;;;;;;;;5053529;28;20068;-80
2022/03/27 01:31:20;;;;;;;29.25;16.55;;;;;;;;;;5053787;28;20045;-80
2022/03/27 01:33:45;;;;;;;24.92;13.35;;;;;;;;;;5053533;28;20397;-80
2022/03/27 01:36:10;;;;;;;30.80;15.20;;;;;;;;;;5053007;28;20051;-80
2022/03/27 01:38:35;;;;;;;26.85;14.55;;;;;;;;;;5052440;28;20485;-80
2022/03/27 01:41:01;;;;;;;26.08;14.80;;;;;;;;;;5053451;28;20041;-80
2022/03/27 01:43:26;;;;;;;30.45;14.63;;;;;;;;;;5053617;28;20025;-80
2022/03/27 01:45:51;;;;;;;29.35;15.13;;;;;;;;;;5051953;28;20457;-80
2022/03/27 01:48:17;;;;;;;27.52;15.07;;;;;;;;;;5053284;28;20040;-80
2022/03/27 01:50:42;;;;;;;37.15;18.90;;;;;;;;;;5035726;28;20107;-80
2022/03/27 01:53:07;;;;;;;31.55;15.73;;;;;;;;;;5053125;28;20040;-80
2022/03/27 01:55:32;;;;;;;27.27;14.52;;;;;;;;;;5053333;28;20025;-80
2022/03/27 01:57:58;;;;;;;28.63;13.75;;;;;;;;;;5051883;28;20037;-80
2022/03/27 02:00:23;;;;;;;26.48;13.05;;;;;;;;;;5053127;28;20059;-80
2022/03/27 02:02:49;;;;;;;22.88;12.55;;;;;;;;;;5053427;28;20049;-81
2022/03/27 02:05:15;;;;;;;21.88;12.60;;;;;;;;;;5051832;28;20389;-80
2022/03/27 02:07:45;;;;;;;22.88;13.27;;;;;;;;;;5053433;28;20044;-80
2022/03/27 02:10:10;;;;;;;25.17;12.30;;;;;;;;;;5056625;28;20491;-80
2022/03/27 02:12:35;;;;;;;22.30;12.30;;;;;;;;;;5055297;28;20025;-80
2022/03/27 02:15:00;;;;;;;26.38;12.25;;;;;;;;;;5038530;28;20123;-80
2022/03/27 02:17:26;;;;;;;22.30;12.40;;;;;;;;;;5057251;28;20081;-80
2022/03/27 02:19:51;;;;;;;22.48;12.23;;;;;;;;;;5057163;28;20036;-80
2022/03/27 02:22:16;;;;;;;20.52;11.52;;;;;;;;;;5056998;28;20112;-80
2022/03/27 02:24:41;;;;;;;24.95;12.23;;;;;;;;;;5056237;28;20044;-80
2022/03/27 02:27:07;;;;;;;20.05;10.98;;;;;;;;;;5057374;28;20503;-80
2022/03/27 02:29:32;;;;;;;22.48;10.82;;;;;;;;;;5056629;28;20059;-80
2022/03/27 02:31:57;;;;;;;24.40;12.00;;;;;;;;;;5056796;28;20094;-80
2022/03/27 02:34:22;;;;;;;19.08;11.27;;;;;;;;;;5056482;28;20059;-80
2022/03/27 02:36:48;;;;;;;21.10;11.80;;;;;;;;;;5055779;28;20063;-80
2022/03/27 02:39:13;;;;;;;24.73;11.65;;;;;;;;;;5056677;28;20040;-80
2022/03/27 02:41:38;;;;;;;23.75;11.68;;;;;;;;;;5056319;28;20128;-80
2022/03/27 02:44:03;;;;;;;21.25;11.50;;;;;;;;;;5054866;28;20025;-80
2022/03/27 02:46:29;;;;;;;22.67;12.10;;;;;;;;;;5054982;28;20110;-80
2022/03/27 02:48:54;;;;;;;23.67;12.00;;;;;;;;;;5056371;28;20025;-80
2022/03/27 02:51:19;;;;;;;24.85;12.68;;;;;;;;;;5055083;28;20485;-81
2022/03/27 02:53:44;;;;;;;23.02;12.85;;;;;;;;;;5054621;28;20206;-80
2022/03/27 02:56:10;;;;;;;24.90;12.48;;;;;;;;;;5055701;28;20040;-80
2022/03/27 02:58:35;;;;;;;24.48;11.73;;;;;;;;;;5055780;28;20655;-80
2022/03/27 03:01:00;;;;;;;30.48;13.95;;;;;;;;;;5054885;28;20055;-80
2022/03/27 03:03:26;;;;;;;38.28;20.02;;;;;;;;;;5056109;28;20060;-80
2022/03/27 03:05:51;;;;;;;26.60;14.93;;;;;;;;;;5054919;28;20071;-80
2022/03/27 03:08:17;;;;;;;24.42;12.88;;;;;;;;;;5056128;28;20039;-80
2022/03/27 03:10:43;;;;;;;27.33;13.63;;;;;;;;;;5055181;28;20550;-80
2022/03/27 03:13:08;;;;;;;25.98;13.27;;;;;;;;;;5054348;28;20024;-80
2022/03/27 03:15:33;;;;;;;25.80;13.63;;;;;;;;;;5055709;28;20036;-80
2022/03/27 03:17:59;;;;;;;27.40;13.57;;;;;;;;;;5054795;28;20037;-80
2022/03/27 03:20:24;;;;;;;24.75;13.50;;;;;;;;;;5055608;28;20037;-80
2022/03/27 03:22:49;;;;;;;41.65;20.20;;;;;;;;;;5055670;28;20107;-80
2022/03/27 03:25:14;;;;;;;31.95;17.27;;;;;;;;;;5055392;28;20393;-80
2022/03/27 03:27:40;;;;;;;27.15;13.15;;;;;;;;;;5055492;28;20362;-79
2022/03/27 03:30:05;;;;;;;26.25;13.32;;;;;;;;;;5055197;28;20033;-80
2022/03/27 03:32:31;;;;;;;26.55;13.43;;;;;;;;;;5055855;28;20075;-80
2022/03/27 03:34:56;;;;;;;27.67;14.40;;;;;;;;;;5055261;28;20013;-80
2022/03/27 03:37:23;;;;;;;25.65;13.35;;;;;;;;;;5053814;28;20043;-80
2022/03/27 03:39:48;;;;;;;24.48;12.20;;;;;;;;;;5055504;28;20033;-80
2022/03/27 03:42:14;;;;;;;23.50;12.38;;;;;;;;;;5054189;28;20485;-80
2022/03/27 03:44:39;;;;;;;23.48;12.32;;;;;;;;;;5053479;28;20036;-81
2022/03/27 03:47:04;;;;;;;23.85;12.88;;;;;;;;;;5055419;28;20071;-82
2022/03/27 03:49:30;;;;;;;25.25;12.63;;;;;;;;;;5053603;28;20033;-81
2022/03/27 03:51:56;;;;;;;19.85;11.57;;;;;;;;;;5054736;28;20043;-81
2022/03/27 03:54:21;;;;;;;23.55;11.68;;;;;;;;;;5054432;28;20065;-82
2022/03/27 03:56:46;;;;;;;23.17;12.48;;;;;;;;;;5054777;28;20093;-81
2022/03/27 03:59:12;;;;;;;24.40;11.77;;;;;;;;;;5055038;28;20585;-81
2022/03/27 04:01:37;;;;;;;23.23;11.75;;;;;;;;;;5054500;28;20031;-81
2022/03/27 04:04:02;;;;;;;25.25;12.93;;;;;;;;;;5053837;28;20419;-81
2022/03/27 04:06:28;;;;;;;29.00;12.73;;;;;;;;;;5054021;28;20029;-81
2022/03/27 04:08:53;;;;;;;25.73;12.85;;;;;;;;;;5053688;28;20533;-81
2022/03/27 04:11:18;;;;;;;22.48;11.70;;;;;;;;;;5035771;28;20041;-81
2022/03/27 04:13:43;;;;;;;24.30;12.15;;;;;;;;;;5053718;28;20040;-81
2022/03/27 04:16:09;;;;;;;24.27;12.75;;;;;;;;;;5053615;28;20408;-81
2022/03/27 04:18:34;;;;;;;24.85;12.38;;;;;;;;;;5053368;28;20398;-81
2022/03/27 04:20:59;;;;;;;21.33;11.40;;;;;;;;;;5054575;28;20029;-81
2022/03/27 04:23:24;;;;;;;23.88;11.60;;;;;;;;;;5053260;28;20107;-81
2022/03/27 04:25:50;;;;;;;20.85;10.85;;;;;;;;;;5053284;28;20029;-81
2022/03/27 04:28:15;;;;;;;23.23;11.75;;;;;;;;;;5053477;28;20037;-81
2022/03/27 04:30:40;;;;;;;22.17;11.38;;;;;;;;;;5053050;28;20111;-80
2022/03/27 04:33:07;;;;;;;23.25;11.38;;;;;;;;;;5035671;28;20037;-80
2022/03/27 04:35:32;;;;;;;19.83;11.18;;;;;;;;;;5052826;28;20059;-81
2022/03/27 04:37:57;;;;;;;24.48;11.70;;;;;;;;;;5053204;28;20033;-80
2022/03/27 04:40:23;;;;;;;21.45;10.90;;;;;;;;;;5053932;28;20120;-81
2022/03/27 04:42:48;;;;;;;23.10;11.68;;;;;;;;;;5054032;28;20032;-81
2022/03/27 04:45:13;;;;;;;24.27;12.13;;;;;;;;;;5053438;28;20473;-81
2022/03/27 04:47:38;;;;;;;23.25;11.50;;;;;;;;;;5053576;28;20116;-81
2022/03/27 04:50:04;;;;;;;21.55;11.77;;;;;;;;;;5053311;28;20048;-81
2022/03/27 04:52:30;;;;;;;26.67;12.32;;;;;;;;;;5035733;28;20033;-81
2022/03/27 04:54:55;;;;;;;25.73;12.35;;;;;;;;;;5053645;28;20044;-80
2022/03/27 04:57:21;;;;;;;24.48;11.90;;;;;;;;;;5053583;28;20037;-80
2022/03/27 04:59:46;;;;;;;23.95;12.20;;;;;;;;;;5051434;28;20117;-81
2022/03/27 05:02:11;;;;;;;22.23;11.80;;;;;;;;;;5052499;28;20116;-80
2022/03/27 05:04:37;;;;;;;22.88;11.82;;;;;;;;;;5052224;28;20040;-80
2022/03/27 05:07:03;;;;;;;25.40;12.20;;;;;;;;;;5052742;28;20041;-80
2022/03/27 05:09:28;;;;;;;23.67;12.25;;;;;;;;;;5052678;28;20037;-80
2022/03/27 05:11:55;;;;;;;22.75;11.70;;;;;;;;;;5052677;28;20040;-80
2022/03/27 05:14:20;;;;;;;24.52;12.25;;;;;;;;;;5051776;28;20056;-80
2022/03/27 05:16:46;;;;;;;22.90;12.07;;;;;;;;;;5053662;28;20504;-80
2022/03/27 05:19:11;;;;;;;21.35;11.05;;;;;;;;;;5053414;28;20102;-80
2022/03/27 05:21:36;;;;;;;24.58;12.18;;;;;;;;;;5053301;28;20025;-80
2022/03/27 05:24:01;;;;;;;21.48;11.50;;;;;;;;;;5052204;28;20119;-80
2022/03/27 05:26:27;;;;;;;23.83;12.07;;;;;;;;;;5053358;28;20071;-80
2022/03/27 05:28:52;;;;;;;27.73;11.70;;;;;;;;;;5052336;28;20489;-81
2022/03/27 05:31:17;;;;;;;28.10;13.27;;;;;;;;;;5051246;28;20037;-80
2022/03/27 05:33:43;;;;;;;25.05;11.80;;;;;;;;;;5052421;28;20044;-80
2022/03/27 05:36:08;;;;;;;20.08;11.63;;;;;;;;;;5052312;28;20033;-80
2022/03/27 05:38:33;;;;;;;24.63;12.02;;;;;;;;;;5052069;28;20037;-81
2022/03/27 05:40:59;;;;;;;21.30;11.73;;;;;;;;;;5052250;28;20036;-80
2022/03/27 05:43:24;;;;;;;22.45;11.77;;;;;;;;;;5055560;28;20036;-80
2022/03/27 05:45:50;;;;;;;25.05;12.32;;;;;;;;;;5056957;28;20473;-81
2022/03/27 05:48:15;;;;;;;21.33;12.02;;;;;;;;;;5038651;28;20029;-81
2022/03/27 05:50:40;;;;;;;22.48;11.70;;;;;;;;;;5056819;28;20051;-80
2022/03/27 05:53:06;;;;;;;22.98;10.65;;;;;;;;;;5056691;28;20037;-80
2022/03/27 05:55:31;;;;;;;18.83;10.88;;;;;;;;;;5056687;28;20017;-81
2022/03/27 05:57:56;;;;;;;22.25;11.88;;;;;;;;;;5057372;28;20183;-81
2022/03/27 06:00:22;;;;;;;23.63;12.15;;;;;;;;;;5057416;28;20032;-80
2022/03/27 06:02:48;;;;;;;24.55;11.75;;;;;;;;;;5055388;28;20036;-81
2022/03/27 06:05:13;;;;;;;21.70;11.70;;;;;;;;;;5055845;28;20037;-81
2022/03/27 06:07:39;;;;;;;23.50;11.82;;;;;;;;;;5056178;28;20412;-80
2022/03/27 06:10:04;;;;;;;21.85;11.48;;;;;;;;;;5055549;28;20400;-80
2022/03/27 06:12:29;;;;;;;22.65;11.10;;;;;;;;;;5054695;28;20047;-81
2022/03/27 06:14:54;;;;;;;19.20;10.85;;;;;;;;;;5056743;28;20086;-81
2022/03/27 06:17:20;;;;;;;23.42;11.25;;;;;;;;;;5054675;28;20405;-78
2022/03/27 06:19:45;;;;;;;22.30;11.85;;;;;;;;;;5054700;28;20040;-79
2022/03/27 06:22:10;;;;;;;23.50;12.20;;;;;;;;;;5054806;28;20079;-78
2022/03/27 06:24:36;;;;;;;22.58;11.88;;;;;;;;;;5053280;28;20021;-79
2022/03/27 06:27:01;;;;;;;25.58;13.07;;;;;;;;;;5055313;28;20115;-80
2022/03/27 06:29:26;;;;;;;22.63;12.40;;;;;;;;;;5056633;28;20028;-79
2022/03/27 06:31:51;;;;;;;29.70;13.88;;;;;;;;;;5057406;28;20162;-79
2022/03/27 06:34:17;;;;;;;25.60;12.52;;;;;;;;;;5054367;28;20065;-79
2022/03/27 06:36:42;;;;;;;25.67;13.27;;;;;;;;;;5054656;28;20485;-79
2022/03/27 06:39:07;;;;;;;24.58;13.00;;;;;;;;;;5056767;28;20485;-79
2022/03/27 06:41:32;;;;;;;23.75;12.38;;;;;;;;;;5038252;28;20063;-79
2022/03/27 06:43:58;;;;;;;26.75;13.10;;;;;;;;;;5054037;28;20116;-78
2022/03/27 06:46:23;;;;;;;24.05;12.43;;;;;;;;;;5054735;28;20025;-80
2022/03/27 06:48:49;;;;;;;26.73;12.48;;;;;;;;;;5053382;28;20033;-79
2022/03/27 06:51:14;;;;;;;24.73;12.88;;;;;;;;;;5054512;28;20052;-82
2022/03/27 06:53:40;;;;;;;22.63;12.60;;;;;;;;;;4957044;28;20049;-79
2022/03/27 06:56:05;;;;;;;23.65;12.68;;;;;;;;;;5032849;28;20057;-80
2022/03/27 06:58:30;;;;;;;26.33;12.68;;;;;;;;;;5014357;28;20042;-79
2022/03/27 07:03:40;;;;;;;23.20;12.98;;;;;;;;;;5016530;28;20508;-82
2022/03/27 07:06:05;;;;;;;23.95;12.98;;;;;;;;;;4999764;28;20042;-82
2022/03/27 07:08:30;;;;;;;23.13;12.43;;;;;;;;;;4999522;28;20038;-82
2022/03/27 07:10:56;;;;;;;23.77;12.30;;;;;;;;;;4999211;28;20038;-82
2022/03/27 07:13:21;;;;;;;28.08;12.95;;;;;;;;;;4996782;28;20042;-83
2022/03/27 07:15:46;;;;;;;28.60;12.70;;;;;;;;;;4996501;28;20049;-84
2022/03/27 07:18:12;;;;;;;22.85;13.25;;;;;;;;;;5003244;28;20038;-81
2022/03/27 07:20:37;;;;;;;24.88;12.43;;;;;;;;;;5003478;28;20030;-82
2022/03/27 07:23:02;;;;;;;22.33;11.32;;;;;;;;;;5002180;28;20034;-81
2022/03/27 07:25:28;;;;;;;23.83;12.77;;;;;;;;;;5002161;28;20410;-81
2022/03/27 07:27:53;;;;;;;22.75;12.25;;;;;;;;;;4994641;28;20034;-82
2022/03/27 07:30:18;;;;;;;23.23;12.55;;;;;;;;;;4995991;28;20069;-82
2022/03/27 07:32:44;;;;;;;21.85;12.48;;;;;;;;;;4996096;28;20068;-82
2022/03/27 07:35:09;;;;;;;21.52;12.20;;;;;;;;;;4994799;28;20042;-82
2022/03/27 07:37:35;;;;;;;22.92;12.85;;;;;;;;;;4995623;28;20157;-82
2022/03/27 07:40:03;;;;;;;24.20;12.38;;;;;;;;;;4994578;28;20042;-82
2022/03/27 07:42:28;;;;;;;21.02;11.57;;;;;;;;;;4995597;28;20037;-82
2022/03/27 07:44:53;;;;;;;20.10;11.27;;;;;;;;;;4995074;28;20046;-82
2022/03/27 07:47:18;;;;;;;20.02;10.70;;;;;;;;;;4995827;28;20041;-82
2022/03/27 07:49:44;;;;;;;16.42;10.40;;;;;;;;;;4996529;28;20061;-82
2022/03/27 07:52:09;;;;;;;15.90;10.10;;;;;;;;;;4995415;28;20042;-82
2022/03/27 07:54:34;;;;;;;15.52;9.88;;;;;;;;;;4993562;28;20105;-82
2022/03/27 07:57:00;;;;;;;17.45;10.32;;;;;;;;;;4994026;28;20069;-83
2022/03/27 07:59:26;;;;;;;18.30;10.20;;;;;;;;;;4995309;28;20117;-82
2022/03/27 08:01:51;;;;;;;19.30;10.18;;;;;;;;;;4994691;28;20383;-81
2022/03/27 08:04:16;;;;;;;16.08;10.00;;;;;;;;;;4994462;28;20073;-82
2022/03/27 08:06:43;;;;;;;18.40;10.45;;;;;;;;;;4993262;28;20030;-81
2022/03/27 08:09:08;;;;;;;20.63;11.43;;;;;;;;;;4994582;28;20125;-82
2022/03/27 08:11:36;;;;;;;18.60;11.02;;;;;;;;;;4993789;28;20062;-81
2022/03/27 08:14:02;;;;;;;24.30;12.25;;;;;;;;;;4994684;28;20042;-79
2022/03/27 08:16:27;;;;;;;19.42;11.07;;;;;;;;;;4995104;28;20038;-82
2022/03/27 08:18:52;;;;;;;19.42;11.50;;;;;;;;;;4995164;28;20038;-82
2022/03/27 08:21:17;;;;;;;22.75;11.55;;;;;;;;;;4994794;28;20482;-82
2022/03/27 08:23:43;;;;;;;21.75;11.02;;;;;;;;;;4995870;28;20038;-81
2022/03/27 08:28:52;;;;;;;22.25;12.18;;;;;;;;;;4995890;28;20030;-81
2022/03/27 08:31:17;;;;;;;19.40;12.13;;;;;;;;;;4995956;28;20026;-82
2022/03/27 08:33:42;;;;;;;22.73;12.82;;;;;;;;;;4996531;28;20056;-81
2022/03/27 08:36:08;;;;;;;25.55;14.20;;;;;;;;;;4996101;28;20034;-81
2022/03/27 08:38:33;;;;;;;24.23;13.77;;;;;;;;;;4996444;28;20113;-81
2022/03/27 08:41:01;;;;;;;23.90;12.65;;;;;;;;;;4995909;28;20054;-81
2022/03/27 08:43:26;;;;;;;25.45;14.32;;;;;;;;;;4996013;28;20034;-81
2022/03/27 08:45:51;;;;;;;23.45;13.57;;;;;;;;;;4995584;28;20044;-81
2022/03/27 08:48:17;;;;;;;23.63;13.60;;;;;;;;;;4994935;28;20045;-81
2022/03/27 08:50:42;;;;;;;29.60;13.90;;;;;;;;;;4996859;28;20035;-81
2022/03/27 08:53:07;;;;;;;24.38;13.73;;;;;;;;;;4996613;28;20495;-80
2022/03/27 08:55:32;;;;;;;26.52;13.45;;;;;;;;;;4994650;28;20133;-81
2022/03/27 08:57:58;;;;;;;25.98;13.65;;;;;;;;;;4996436;28;20065;-81
2022/03/27 09:00:23;;;;;;;29.42;14.05;;;;;;;;;;4996031;28;20049;-81
2022/03/27 09:02:48;;;;;;;26.77;13.70;;;;;;;;;;4995906;28;20490;-81
2022/03/27 09:05:14;;;;;;;30.40;14.50;;;;;;;;;;4995512;28;20076;-81
2022/03/27 09:07:40;;;;;;;25.15;14.45;;;;;;;;;;4979799;28;20030;-82
2022/03/27 09:10:05;;;;;;;23.42;14.13;;;;;;;;;;4995790;28;20122;-83
2022/03/27 09:12:31;;;;;;;24.13;13.80;;;;;;;;;;4994922;28;20514;-82
2022/03/27 09:14:56;;;;;;;25.13;13.90;;;;;;;;;;4996856;28;20098;-82
2022/03/27 09:17:21;;;;;;;22.70;12.95;;;;;;;;;;4997762;28;20034;-81
2022/03/27 09:19:47;;;;;;;23.15;13.32;;;;;;;;;;4999840;28;20117;-81
2022/03/27 09:22:13;;;;;;;23.10;12.73;;;;;;;;;;4999714;28;20046;-81
2022/03/27 09:24:38;;;;;;;23.23;13.52;;;;;;;;;;4999497;28;20515;-81
2022/03/27 09:27:05;;;;;;;25.00;13.52;;;;;;;;;;5002692;28;20022;-81
2022/03/27 09:29:30;;;;;;;30.63;14.45;;;;;;;;;;5019435;28;20030;-82
2022/03/27 09:31:55;;;;;;;24.67;14.23;;;;;;;;;;5019850;28;20034;-81
2022/03/27 09:34:21;;;;;;;25.77;14.05;;;;;;;;;;5018405;28;20038;-84
2022/03/27 09:36:46;;;;;;;23.15;13.35;;;;;;;;;;5017929;28;20037;-83
2022/03/27 09:39:16;;;;;;;25.85;13.55;;;;;;;;;;5019047;28;20030;-82
2022/03/27 09:41:41;;;;;;;26.27;13.65;;;;;;;;;;5017676;28;20034;-82
2022/03/27 09:44:07;;;;;;;23.55;13.15;;;;;;;;;;5016873;28;20516;-81
2022/03/27 09:46:32;;;;;;;21.95;12.15;;;;;;;;;;5018469;28;20049;-82
2022/03/27 09:48:57;;;;;;;23.05;13.07;;;;;;;;;;5017579;28;20040;-82
2022/03/27 09:51:23;;;;;;;21.75;13.20;;;;;;;;;;5017949;28;20402;-81
2022/03/27 09:53:48;;;;;;;22.70;12.95;;;;;;;;;;5019077;28;20048;-82
2022/03/27 09:56:14;;;;;;;24.70;13.60;;;;;;;;;;5018538;28;20455;-82
2022/03/27 09:58:40;;;;;;;28.35;14.02;;;;;;;;;;5017723;28;20072;-81
2022/03/27 10:01:05;;;;;;;23.65;14.32;;;;;;;;;;5016160;28;20068;-82
2022/03/27 10:03:30;;;;;;;27.02;14.10;;;;;;;;;;5017069;28;20034;-81
2022/03/27 10:05:55;;;;;;;24.88;14.82;;;;;;;;;;5015255;28;20033;-82
2022/03/27 10:08:21;;;;;;;26.77;14.38;;;;;;;;;;5015407;28;20513;-82
2022/03/27 10:10:46;;;;;;;26.17;13.90;;;;;;;;;;5017189;28;20038;-82
2022/03/27 10:13:12;;;;;;;23.70;14.27;;;;;;;;;;4999945;28;20038;-81
2022/03/27 10:15:37;;;;;;;23.27;14.50;;;;;;;;;;5016697;28;20518;-82
2022/03/27 10:18:05;;;;;;;26.33;15.32;;;;;;;;;;5017379;28;20041;-82
2022/03/27 10:20:31;;;;;;;26.90;14.93;;;;;;;;;;5016789;28;20034;-82
2022/03/27 10:22:56;;;;;;;23.77;13.98;;;;;;;;;;5016850;28;20033;-82
2022/03/27 10:25:21;;;;;;;29.02;15.05;;;;;;;;;;5016983;28;20524;-82
2022/03/27 10:27:47;;;;;;;26.20;15.20;;;;;;;;;;5016473;28;20036;-82
2022/03/27 10:30:12;;;;;;;25.90;14.25;;;;;;;;;;5017008;28;20038;-82
2022/03/27 10:32:37;;;;;;;26.13;15.20;;;;;;;;;;5016957;28;20037;-83
2022/03/27 10:35:03;;;;;;;26.13;14.82;;;;;;;;;;5016936;28;20038;-85
2022/03/27 10:37:28;;;;;;;26.25;15.07;;;;;;;;;;5016752;28;20516;-82
2022/03/27 10:39:53;;;;;;;26.58;15.88;;;;;;;;;;5015992;28;20030;-82
2022/03/27 10:42:19;;;;;;;25.75;15.00;;;;;;;;;;5015237;28;20482;-82
2022/03/27 10:44:45;;;;;;;28.90;15.05;;;;;;;;;;5015818;28;20399;-82
2022/03/27 10:47:10;;;;;;;31.15;15.63;;;;;;;;;;5015691;28;20034;-82
2022/03/27 10:49:35;;;;;;;26.88;15.10;;;;;;;;;;5015325;28;20045;-82
2022/03/27 10:52:00;;;;;;;24.48;14.60;;;;;;;;;;5015805;28;20482;-82
2022/03/27 10:54:26;;;;;;;24.42;13.95;;;;;;;;;;5015422;28;20073;-82
2022/03/27 10:56:51;;;;;;;23.10;14.75;;;;;;;;;;5016054;28;20037;-82
2022/03/27 10:59:16;;;;;;;24.65;14.88;;;;;;;;;;5016051;28;20553;-82
2022/03/27 11:01:42;;;;;;;27.13;14.48;;;;;;;;;;5016063;28;20040;-84
2022/03/27 11:04:07;;;;;;;38.03;14.32;;;;;;;;;;5015558;28;20433;-83
2022/03/27 11:06:32;;;;;;;22.85;13.82;;;;;;;;;;5015988;28;20120;-82
2022/03/27 11:08:57;;;;;;;21.63;13.35;;;;;;;;;;5015397;28;20028;-82
2022/03/27 11:11:23;;;;;;;22.83;14.05;;;;;;;;;;5015221;28;20084;-82
2022/03/27 11:13:48;;;;;;;24.23;13.90;;;;;;;;;;5015387;28;20073;-82
2022/03/27 11:16:13;;;;;;;25.40;13.52;;;;;;;;;;5015488;28;20030;-82
2022/03/27 11:18:39;;;;;;;24.23;13.18;;;;;;;;;;5014905;28;20060;-82
2022/03/27 11:21:04;;;;;;;27.77;13.55;;;;;;;;;;5016094;28;20053;-82
2022/03/27 11:23:29;;;;;;;22.95;13.05;;;;;;;;;;5014927;28;20033;-82
2022/03/27 11:25:55;;;;;;;24.75;13.40;;;;;;;;;;5014174;28;20501;-82
2022/03/27 11:28:23;;;;;;;27.35;13.15;;;;;;;;;;5016146;28;20478;-82
2022/03/27 11:30:48;;;;;;;25.17;13.10;;;;;;;;;;5015855;28;20126;-82
2022/03/27 11:33:13;;;;;;;26.85;13.05;;;;;;;;;;5015191;28;20065;-82
2022/03/27 11:35:39;;;;;;;22.50;13.25;;;;;;;;;;5016280;28;20029;-82
2022/03/27 11:38:04;;;;;;;23.33;13.43;;;;;;;;;;5015579;28;20033;-82
2022/03/27 11:40:29;;;;;;;22.45;12.75;;;;;;;;;;5015806;28;20269;-81
2022/03/27 11:42:56;;;;;;;20.55;12.82;;;;;;;;;;5016900;28;20429;-81
2022/03/27 11:45:21;;;;;;;21.55;13.73;;;;;;;;;;5015089;28;20056;-81
2022/03/27 11:47:46;;;;;;;20.08;12.63;;;;;;;;;;5016119;28;20038;-81
2022/03/27 11:50:12;;;;;;;21.33;12.80;;;;;;;;;;5025870;23;20116;-84
2022/03/27 11:52:37;;;;;;;25.17;12.63;;;;;;;;;;4994915;28;20081;-84
2022/03/27 11:55:02;;;;;;;20.30;12.75;;;;;;;;;;5004445;28;20065;-84
2022/03/27 11:57:28;;;;;;;21.42;12.35;;;;;;;;;;4997869;28;20042;-85
2022/03/27 11:59:53;;;;;;;18.55;12.13;;;;;;;;;;4998269;28;20093;-84
2022/03/27 12:02:19;;;;;;;19.58;12.15;;;;;;;;;;4998302;28;20044;-85
2022/03/27 12:04:44;;;;;;;24.10;12.85;;;;;;;;;;4996373;28;20034;-84
2022/03/27 12:07:09;;;;;;;23.08;13.55;;;;;;;;;;4996473;28;20430;-84
2022/03/27 12:09:34;;;;;;;23.98;12.70;;;;;;;;;;4997599;28;20057;-84
2022/03/27 12:12:00;;;;;;;21.98;13.50;;;;;;;;;;4997410;28;20038;-86
2022/03/27 12:14:25;;;;;;;20.25;12.32;;;;;;;;;;4997935;28;20034;-84
2022/03/27 12:16:51;;;;;;;20.65;11.93;;;;;;;;;;4998642;28;20041;-85
2022/03/27 12:19:17;;;;;;;20.45;12.02;;;;;;;;;;4997297;28;20084;-84
2022/03/27 12:21:42;;;;;;;20.67;12.85;;;;;;;;;;4997629;28;20109;-84
2022/03/27 12:24:07;;;;;;;21.45;12.13;;;;;;;;;;4980123;28;20494;-84
2022/03/27 12:32:00;;;;;;;27.48;11.68;;;;;;;;;;4997388;28;20037;-85
2022/03/27 12:34:25;;;;;;;18.70;11.80;;;;;;;;;;4995627;28;20398;-84
2022/03/27 12:36:50;;;;;;;18.55;11.18;;;;;;;;;;4996956;28;20300;-85
2022/03/27 12:39:16;;;;;;;21.23;11.68;;;;;;;;;;4997224;28;20038;-84
2022/03/27 12:41:42;;;;;;;17.30;11.35;;;;;;;;;;4979140;28;20395;-84
2022/03/27 12:44:07;;;;;;;17.55;11.20;;;;;;;;;;4995817;28;20034;-83
2022/03/27 12:46:32;;;;;;;22.30;11.80;;;;;;;;;;4997077;28;20089;-84
2022/03/27 12:48:58;;;;;;;23.63;11.55;;;;;;;;;;4997010;28;20030;-84
2022/03/27 12:51:23;;;;;;;23.83;11.82;;;;;;;;;;4994733;28;20650;-84
2022/03/27 12:53:48;;;;;;;19.88;10.85;;;;;;;;;;4978290;28;20042;-84
2022/03/27 12:56:13;;;;;;;22.48;11.73;;;;;;;;;;4995270;28;20034;-84
2022/03/27 12:58:39;;;;;;;21.35;11.50;;;;;;;;;;4994688;28;20101;-84
2022/03/27 13:01:04;;;;;;;20.75;11.15;;;;;;;;;;4995106;28;20398;-82
2022/03/27 13:03:31;;;;;;;16.77;10.77;;;;;;;;;;5022992;28;20449;-85
2022/03/27 13:05:56;;;;;;;18.27;11.27;;;;;;;;;;5016886;28;20045;-83
2022/03/27 13:08:22;;;;;;;20.38;11.25;;;;;;;;;;5016676;28;20284;-86
2022/03/27 13:10:47;;;;;;;19.20;10.68;;;;;;;;;;5016163;28;20061;-86
2022/03/27 13:13:17;;;;;;;22.77;10.93;;;;;;;;;;5015438;28;20120;-84
2022/03/27 13:15:43;;;;;;;19.98;10.90;;;;;;;;;;5013884;28;20030;-84
2022/03/27 13:18:09;;;;;;;19.23;11.18;;;;;;;;;;5015566;28;20079;-84
2022/03/27 13:20:34;;;;;;;17.95;10.70;;;;;;;;;;5014234;28;20041;-84
2022/03/27 13:22:59;;;;;;;20.55;11.20;;;;;;;;;;5014210;28;20048;-84
2022/03/27 13:25:24;;;;;;;19.70;10.82;;;;;;;;;;5014837;28;20053;-84
2022/03/27 13:27:50;;;;;;;18.88;10.90;;;;;;;;;;5014144;28;20038;-85
2022/03/27 13:30:15;;;;;;;17.00;10.50;;;;;;;;;;5015753;28;20036;-86
2022/03/27 13:32:40;;;;;;;20.00;10.57;;;;;;;;;;5015000;28;20042;-85
2022/03/27 13:35:06;;;;;;;18.02;10.90;;;;;;;;;;5014367;28;20069;-86
2022/03/27 13:37:31;;;;;;;18.15;10.15;;;;;;;;;;5014433;28;20038;-87
2022/03/27 13:39:56;;;;;;;20.38;9.95;;;;;;;;;;5015742;28;20441;-84
2022/03/27 13:45:06;;;;;;;19.17;10.23;;;;;;;;;;5015267;28;20034;-85
2022/03/27 13:47:31;;;;;;;32.07;9.93;;;;;;;;;;5013682;28;20165;-85
2022/03/27 13:49:56;;;;;;;19.20;9.85;;;;;;;;;;5013712;28;20324;-85
2022/03/27 13:52:21;;;;;;;19.00;10.18;;;;;;;;;;5015375;28;20038;-85
2022/03/27 13:54:47;;;;;;;16.33;9.52;;;;;;;;;;5012737;28;20402;-84
2022/03/27 13:57:12;;;;;;;21.27;10.05;;;;;;;;;;5014180;28;20030;-82
2022/03/27 13:59:37;;;;;;;13.25;8.55;;;;;;;;;;5012519;28;20081;-84
2022/03/27 14:02:03;;;;;;;14.40;8.75;;;;;;;;;;5013062;28;20397;-83
2022/03/27 14:04:28;;;;;;;15.30;8.75;;;;;;;;;;5016464;28;20033;-82
2022/03/27 14:06:54;;;;;;;15.65;9.13;;;;;;;;;;5015288;28;20529;-82
2022/03/27 14:09:19;;;;;;;15.48;9.10;;;;;;;;;;5025203;28;20042;-84
2022/03/27 14:11:45;;;;;;;13.13;8.65;;;;;;;;;;5018091;28;20069;-83
2022/03/27 14:14:10;;;;;;;17.85;8.95;;;;;;;;;;5019275;28;20036;-82
2022/03/27 14:16:37;;;;;;;18.35;8.10;;;;;;;;;;5017659;28;20398;-84
2022/03/27 14:19:02;;;;;;;15.00;8.60;;;;;;;;;;5018797;28;20112;-85
2022/03/27 14:21:28;;;;;;;21.65;9.20;;;;;;;;;;5017996;28;20514;-85
2022/03/27 14:23:53;;;;;;;15.82;9.00;;;;;;;;;;5018297;28;20034;-85
2022/03/27 14:26:18;;;;;;;13.18;8.13;;;;;;;;;;5016914;28;20441;-84